Etusivu
METAR-TAF:

METAR-TAF

Lentoasemat :

Kristianstad, Ruotsi

Leveyspiiri: 55-55N, Pituuspiiri: 014-05E, korkeus merenpinnasta: 23 m

Tämänhetkinen sää

Tämä raportti tehtiin 12 minuuttia sitten, kello 15.20 UTC
Tuuli 7 kn lännestä/luoteesta
Lämpötila 11°C
Kosteus 82%
Ilmanpaine
Näkyvyys 10 km tai enemmän

METAR: ESMK 201520Z AUTO 29007KT 9999 R01///// R19///// BKN062/// 11/08 Q////

Aika: 17:32 (15:32 UTC)

Sääennuste

Tämä raportti tehtiin 22 tuntia ja 31 minuuttia sitten, kello 17.01 UTC
Ennuste voimassa 19. päivästä klo 18 UTC - 19. päivään klo 20 UTC
Tuuli 3 kn eri suunnista
Näkyvyys 10 km tai enemmän
Muutamia pilviä 3000 ft:n korkeudessa

TAF: ESMK 191701Z 1918/1920 VRB03KT 9999 FEW030

Säähavainnot ja -ennusteet yli 4000 lentoasemalta (METAR- ja TAF-raportit).

Käytössä olevat sääasemat on merkitty karttaan keltaisilla ja punaisilla pisteillä.

Aseta hiiri pisteen päälle nähdäksesi sääaseman nimen.

Klikkaa sitten nähdäksesi säähavainnot ja -ennusteet.

Kartan vaihtaminen: klikkaa mustalla rastilla varustettuja vihreitä pisteitä, niin voit zoomata sisään; viivalla varustettua vihreää pistettä, niin voit zoomata ulos tai vihreitä nuolia, niin pääset viereisille kartoille.


METAR-TAF: